ePrivacy and GPDR Cookie Consent by Cookie Consent
EmailTwitter


Observations de surface / Royaume-Uni / EGLL (03772)

Régions: Québec | Canada | États-Unis | Europe | France | UK | Ailleurs
Station
Affichage
Infos & localisation pour EGLL (03772) | Aide pour décoder les METARs

Observations prises le 2021-10-22 à 22H50 UTC à LONDON/HEATHROW, UK (EGLL)

Température: 11.0 Celsius

Point de rosée: 8.0 Celsius

Humidité relative: 82%

Vents: Ouest-nord-ouest à 7 km/h ou 4 noeuds.

Pression au niveau moyen de la mer: 102.50 kilopascals.

Visibilité horizontale: 6.21 milles terrestres ou 9.94 kilomètres.

Observation METAR:

EGLL 222250Z AUTO 29004KT 260V320 9999 NCD 11/08 Q1025 NOSIG=